sensor_id;sensor_type;location;lat;lon;timestamp;pressure;altitude;pressure_sealevel;temperature;humidity
49627;BME280;35527;54.616;39.786;2022-07-23T00:01:50;99714.56;;;16.08;100.00
49627;BME280;35527;54.616;39.786;2022-07-23T00:04:53;99736.34;;;16.21;100.00
49627;BME280;35527;54.616;39.786;2022-07-23T00:08:00;99735.78;;;16.16;100.00
49627;BME280;35527;54.616;39.786;2022-07-23T00:11:05;99728.25;;;16.12;100.00
49627;BME280;35527;54.616;39.786;2022-07-23T00:14:10;99705.06;;;15.93;100.00
49627;BME280;35527;54.616;39.786;2022-07-23T00:17:13;99725.13;;;15.92;100.00
49627;BME280;35527;54.616;39.786;2022-07-23T00:20:15;99733.69;;;15.94;100.00
49627;BME280;35527;54.616;39.786;2022-07-23T00:23:19;99716.66;;;15.89;100.00
49627;BME280;35527;54.616;39.786;2022-07-23T00:26:25;99728.19;;;15.99;100.00
49627;BME280;35527;54.616;39.786;2022-07-23T00:29:29;99733.19;;;16.02;100.00
49627;BME280;35527;54.616;39.786;2022-07-23T00:32:32;99738.53;;;16.01;100.00
49627;BME280;35527;54.616;39.786;2022-07-23T00:35:54;99744.78;;;15.98;100.00
49627;BME280;35527;54.616;39.786;2022-07-23T00:38:59;99736.41;;;15.93;100.00
49627;BME280;35527;54.616;39.786;2022-07-23T00:42:03;99726.09;;;15.77;100.00
49627;BME280;35527;54.616;39.786;2022-07-23T00:45:07;99703.69;;;15.59;100.00
49627;BME280;35527;54.616;39.786;2022-07-23T00:48:10;99732.13;;;15.63;100.00
49627;BME280;35527;54.616;39.786;2022-07-23T00:51:16;99723.53;;;15.47;100.00
49627;BME280;35527;54.616;39.786;2022-07-23T00:54:19;99716.28;;;15.38;100.00
49627;BME280;35527;54.616;39.786;2022-07-23T00:57:28;99736.00;;;15.42;100.00
49627;BME280;35527;54.616;39.786;2022-07-23T01:00:31;99745.91;;;15.37;100.00
49627;BME280;35527;54.616;39.786;2022-07-23T01:03:38;99740.84;;;15.19;100.00
49627;BME280;35527;54.616;39.786;2022-07-23T01:06:43;99767.13;;;15.30;100.00
49627;BME280;35527;54.616;39.786;2022-07-23T01:09:49;99763.97;;;15.25;100.00
49627;BME280;35527;54.616;39.786;2022-07-23T01:12:53;99764.41;;;15.18;100.00
49627;BME280;35527;54.616;39.786;2022-07-23T01:15:57;99779.22;;;15.17;100.00
49627;BME280;35527;54.616;39.786;2022-07-23T01:19:00;99748.91;;;15.00;100.00
49627;BME280;35527;54.616;39.786;2022-07-23T01:22:07;99758.03;;;15.07;100.00
49627;BME280;35527;54.616;39.786;2022-07-23T01:25:12;99712.06;;;14.76;100.00
49627;BME280;35527;54.616;39.786;2022-07-23T01:28:27;99764.19;;;15.06;100.00
49627;BME280;35527;54.616;39.786;2022-07-23T01:31:33;99748.53;;;14.92;100.00
49627;BME280;35527;54.616;39.786;2022-07-23T01:34:36;99755.41;;;14.93;100.00
49627;BME280;35527;54.616;39.786;2022-07-23T01:37:39;99765.31;;;15.02;100.00
49627;BME280;35527;54.616;39.786;2022-07-23T01:40:42;99755.16;;;14.98;100.00
49627;BME280;35527;54.616;39.786;2022-07-23T01:43:46;99762.72;;;15.02;100.00
49627;BME280;35527;54.616;39.786;2022-07-23T01:46:49;99765.84;;;15.07;100.00
49627;BME280;35527;54.616;39.786;2022-07-23T01:49:55;99750.59;;;15.01;100.00
49627;BME280;35527;54.616;39.786;2022-07-23T01:53:24;99769.69;;;15.16;100.00
49627;BME280;35527;54.616;39.786;2022-07-23T01:56:28;99776.59;;;15.17;100.00
49627;BME280;35527;54.616;39.786;2022-07-23T01:59:31;99767.66;;;15.21;100.00
49627;BME280;35527;54.616;39.786;2022-07-23T02:02:34;99747.25;;;15.14;100.00
49627;BME280;35527;54.616;39.786;2022-07-23T02:05:42;99768.81;;;15.31;100.00
49627;BME280;35527;54.616;39.786;2022-07-23T02:08:49;99785.88;;;15.37;100.00
49627;BME280;35527;54.616;39.786;2022-07-23T02:11:52;99777.84;;;15.40;100.00
49627;BME280;35527;54.616;39.786;2022-07-23T02:14:55;99768.16;;;15.42;100.00
49627;BME280;35527;54.616;39.786;2022-07-23T02:17:59;99774.13;;;15.44;100.00
49627;BME280;35527;54.616;39.786;2022-07-23T02:21:06;99755.78;;;15.46;100.00
49627;BME280;35527;54.616;39.786;2022-07-23T02:24:10;99754.56;;;15.51;100.00
49627;BME280;35527;54.616;39.786;2022-07-23T02:27:16;99759.50;;;15.56;100.00
49627;BME280;35527;54.616;39.786;2022-07-23T02:30:20;99738.56;;;15.43;100.00
49627;BME280;35527;54.616;39.786;2022-07-23T02:33:22;99744.78;;;15.41;100.00
49627;BME280;35527;54.616;39.786;2022-07-23T02:36:26;99757.00;;;15.54;100.00
49627;BME280;35527;54.616;39.786;2022-07-23T02:39:30;99761.72;;;15.62;100.00
49627;BME280;35527;54.616;39.786;2022-07-23T02:42:34;99764.66;;;15.72;100.00
49627;BME280;35527;54.616;39.786;2022-07-23T02:45:38;99762.13;;;15.85;100.00
49627;BME280;35527;54.616;39.786;2022-07-23T02:48:44;99761.28;;;15.98;100.00
49627;BME280;35527;54.616;39.786;2022-07-23T02:51:50;99762.19;;;16.12;100.00
49627;BME280;35527;54.616;39.786;2022-07-23T02:54:53;99757.38;;;16.33;100.00
49627;BME280;35527;54.616;39.786;2022-07-23T02:57:56;99739.94;;;16.33;100.00
49627;BME280;35527;54.616;39.786;2022-07-23T03:01:00;99729.41;;;16.35;100.00
49627;BME280;35527;54.616;39.786;2022-07-23T03:04:06;99734.25;;;16.54;100.00
49627;BME280;35527;54.616;39.786;2022-07-23T03:07:09;99751.34;;;16.72;100.00
49627;BME280;35527;54.616;39.786;2022-07-23T03:10:13;99748.47;;;16.77;100.00
49627;BME280;35527;54.616;39.786;2022-07-23T03:13:18;99751.75;;;16.93;100.00
49627;BME280;35527;54.616;39.786;2022-07-23T03:16:22;99743.28;;;17.02;100.00
49627;BME280;35527;54.616;39.786;2022-07-23T03:19:27;99749.78;;;17.22;100.00
49627;BME280;35527;54.616;39.786;2022-07-23T03:22:29;99734.75;;;17.26;100.00
49627;BME280;35527;54.616;39.786;2022-07-23T03:25:32;99740.47;;;17.56;100.00
49627;BME280;35527;54.616;39.786;2022-07-23T03:28:37;99733.22;;;17.73;100.00
49627;BME280;35527;54.616;39.786;2022-07-23T03:31:41;99722.03;;;17.71;100.00
49627;BME280;35527;54.616;39.786;2022-07-23T03:34:45;99749.88;;;17.97;100.00
49627;BME280;35527;54.616;39.786;2022-07-23T03:37:48;99747.06;;;18.24;100.00
49627;BME280;35527;54.616;39.786;2022-07-23T03:40:54;99747.25;;;19.29;100.00
49627;BME280;35527;54.616;39.786;2022-07-23T03:43:59;99733.22;;;21.67;100.00
49627;BME280;35527;54.616;39.786;2022-07-23T03:47:05;99735.47;;;24.39;85.79
49627;BME280;35527;54.616;39.786;2022-07-23T03:50:09;99735.06;;;26.00;67.75
49627;BME280;35527;54.616;39.786;2022-07-23T03:53:13;99725.56;;;26.89;60.15
49627;BME280;35527;54.616;39.786;2022-07-23T03:56:18;99736.66;;;27.33;57.43
49627;BME280;35527;54.616;39.786;2022-07-23T03:59:22;99738.75;;;28.02;53.41
49627;BME280;35527;54.616;39.786;2022-07-23T04:02:25;99744.53;;;28.05;50.79
49627;BME280;35527;54.616;39.786;2022-07-23T04:05:28;99760.34;;;28.30;50.73
49627;BME280;35527;54.616;39.786;2022-07-23T04:08:40;99748.03;;;28.06;49.12
49627;BME280;35527;54.616;39.786;2022-07-23T04:11:44;99749.00;;;28.13;50.09
49627;BME280;35527;54.616;39.786;2022-07-23T04:14:47;99746.66;;;29.10;47.42
49627;BME280;35527;54.616;39.786;2022-07-23T04:17:51;99763.28;;;30.01;44.31
49627;BME280;35527;54.616;39.786;2022-07-23T04:20:57;99758.91;;;29.64;45.79
49627;BME280;35527;54.616;39.786;2022-07-23T04:24:00;99761.53;;;29.05;47.22
49627;BME280;35527;54.616;39.786;2022-07-23T04:27:09;99763.47;;;29.40;45.80
49627;BME280;35527;54.616;39.786;2022-07-23T04:30:14;99755.88;;;29.82;44.84
49627;BME280;35527;54.616;39.786;2022-07-23T04:33:17;99776.59;;;29.65;44.79
49627;BME280;35527;54.616;39.786;2022-07-23T04:36:25;99768.84;;;30.58;42.75
49627;BME280;35527;54.616;39.786;2022-07-23T04:39:28;99762.66;;;29.84;43.01
49627;BME280;35527;54.616;39.786;2022-07-23T04:42:32;99751.25;;;29.91;43.77
49627;BME280;35527;54.616;39.786;2022-07-23T04:45:39;99776.53;;;30.46;42.68
49627;BME280;35527;54.616;39.786;2022-07-23T04:48:46;99768.31;;;31.12;40.63
49627;BME280;35527;54.616;39.786;2022-07-23T04:51:52;99769.94;;;30.63;41.44
49627;BME280;35527;54.616;39.786;2022-07-23T04:54:55;99764.31;;;30.00;42.79
49627;BME280;35527;54.616;39.786;2022-07-23T04:58:05;99772.84;;;30.47;42.07
49627;BME280;35527;54.616;39.786;2022-07-23T05:01:08;99784.00;;;29.99;43.35
49627;BME280;35527;54.616;39.786;2022-07-23T05:04:15;99765.97;;;30.38;42.55
49627;BME280;35527;54.616;39.786;2022-07-23T05:07:21;99785.78;;;30.86;41.77
49627;BME280;35527;54.616;39.786;2022-07-23T05:10:29;99773.63;;;30.62;42.07
49627;BME280;35527;54.616;39.786;2022-07-23T05:13:34;99782.06;;;31.09;41.64
49627;BME280;35527;54.616;39.786;2022-07-23T05:16:41;99769.31;;;32.22;39.21
49627;BME280;35527;54.616;39.786;2022-07-23T05:19:50;99765.91;;;32.48;38.76
49627;BME280;35527;54.616;39.786;2022-07-23T05:23:00;99772.53;;;33.32;36.69
49627;BME280;35527;54.616;39.786;2022-07-23T05:26:03;99779.44;;;33.86;35.74
49627;BME280;35527;54.616;39.786;2022-07-23T05:29:08;99767.78;;;32.67;37.41
49627;BME280;35527;54.616;39.786;2022-07-23T05:32:12;99759.56;;;32.69;38.52
49627;BME280;35527;54.616;39.786;2022-07-23T05:35:25;99772.75;;;32.90;37.71
49627;BME280;35527;54.616;39.786;2022-07-23T05:38:51;99782.66;;;33.10;37.68
49627;BME280;35527;54.616;39.786;2022-07-23T05:41:55;99778.16;;;34.40;34.87
49627;BME280;35527;54.616;39.786;2022-07-23T05:45:28;99776.88;;;34.99;34.63
49627;BME280;35527;54.616;39.786;2022-07-23T05:48:34;99784.53;;;34.46;34.83
49627;BME280;35527;54.616;39.786;2022-07-23T05:51:44;99776.53;;;33.87;35.41
49627;BME280;35527;54.616;39.786;2022-07-23T05:54:49;99774.22;;;33.98;35.79
49627;BME280;35527;54.616;39.786;2022-07-23T05:57:56;99759.91;;;33.39;36.60
49627;BME280;35527;54.616;39.786;2022-07-23T06:01:00;99750.97;;;34.23;35.18
49627;BME280;35527;54.616;39.786;2022-07-23T06:04:09;99754.59;;;33.91;36.02
49627;BME280;35527;54.616;39.786;2022-07-23T06:07:18;99746.75;;;32.51;38.07
49627;BME280;35527;54.616;39.786;2022-07-23T06:10:23;99760.25;;;31.05;41.96
49627;BME280;35527;54.616;39.786;2022-07-23T06:13:28;99762.25;;;33.09;38.32
49627;BME280;35527;54.616;39.786;2022-07-23T06:16:31;99758.81;;;33.73;37.10
49627;BME280;35527;54.616;39.786;2022-07-23T06:19:34;99764.00;;;35.08;34.71
49627;BME280;35527;54.616;39.786;2022-07-23T06:22:38;99763.69;;;35.23;34.07
49627;BME280;35527;54.616;39.786;2022-07-23T06:25:41;99768.13;;;35.11;34.29
49627;BME280;35527;54.616;39.786;2022-07-23T06:28:44;99749.84;;;36.12;33.00
49627;BME280;35527;54.616;39.786;2022-07-23T06:31:49;99757.88;;;35.63;33.31
49627;BME280;35527;54.616;39.786;2022-07-23T06:34:57;99751.00;;;34.55;34.89
49627;BME280;35527;54.616;39.786;2022-07-23T06:38:02;99741.41;;;31.20;40.43
49627;BME280;35527;54.616;39.786;2022-07-23T06:41:05;99747.97;;;30.46;42.63
49627;BME280;35527;54.616;39.786;2022-07-23T06:44:08;99750.66;;;32.55;38.62
49627;BME280;35527;54.616;39.786;2022-07-23T06:47:37;99747.97;;;34.38;35.77
49627;BME280;35527;54.616;39.786;2022-07-23T06:51:05;99727.94;;;35.71;33.47
49627;BME280;35527;54.616;39.786;2022-07-23T06:54:08;99742.03;;;36.99;31.71
49627;BME280;35527;54.616;39.786;2022-07-23T06:57:12;99747.47;;;35.67;32.86
49627;BME280;35527;54.616;39.786;2022-07-23T07:00:16;99744.53;;;35.86;32.69
49627;BME280;35527;54.616;39.786;2022-07-23T07:03:24;99745.75;;;36.21;31.89
49627;BME280;35527;54.616;39.786;2022-07-23T07:06:26;99745.09;;;34.40;34.68
49627;BME280;35527;54.616;39.786;2022-07-23T07:09:31;99734.28;;;33.50;35.96
49627;BME280;35527;54.616;39.786;2022-07-23T07:12:36;99741.78;;;34.69;34.04
49627;BME280;35527;54.616;39.786;2022-07-23T07:15:40;99727.25;;;33.62;35.77
49627;BME280;35527;54.616;39.786;2022-07-23T07:18:43;99728.41;;;32.74;37.60
49627;BME280;35527;54.616;39.786;2022-07-23T07:21:48;99725.34;;;34.52;35.38
49627;BME280;35527;54.616;39.786;2022-07-23T07:24:51;99733.84;;;35.43;33.33
49627;BME280;35527;54.616;39.786;2022-07-23T07:27:56;99725.81;;;35.92;32.71
49627;BME280;35527;54.616;39.786;2022-07-23T07:30:58;99722.63;;;35.64;32.72
49627;BME280;35527;54.616;39.786;2022-07-23T07:34:03;99719.75;;;35.96;32.22
49627;BME280;35527;54.616;39.786;2022-07-23T07:37:07;99720.56;;;35.97;31.97
49627;BME280;35527;54.616;39.786;2022-07-23T07:40:10;99715.69;;;36.05;31.50
49627;BME280;35527;54.616;39.786;2022-07-23T07:43:14;99700.84;;;35.84;31.20
49627;BME280;35527;54.616;39.786;2022-07-23T07:46:18;99720.91;;;35.52;31.97
49627;BME280;35527;54.616;39.786;2022-07-23T07:49:22;99708.34;;;35.27;32.99
49627;BME280;35527;54.616;39.786;2022-07-23T07:52:26;99728.25;;;35.01;33.60
49627;BME280;35527;54.616;39.786;2022-07-23T07:55:28;99734.22;;;35.65;32.31
49627;BME280;35527;54.616;39.786;2022-07-23T07:58:32;99736.63;;;36.64;31.10
49627;BME280;35527;54.616;39.786;2022-07-23T08:01:36;99709.94;;;36.32;31.69
49627;BME280;35527;54.616;39.786;2022-07-23T08:04:40;99703.28;;;36.04;31.70
49627;BME280;35527;54.616;39.786;2022-07-23T08:07:44;99697.41;;;36.38;31.37
49627;BME280;35527;54.616;39.786;2022-07-23T08:10:48;99717.78;;;36.03;32.18
49627;BME280;35527;54.616;39.786;2022-07-23T08:13:52;99715.88;;;36.22;32.12
49627;BME280;35527;54.616;39.786;2022-07-23T08:17:21;99722.44;;;35.66;32.24
49627;BME280;35527;54.616;39.786;2022-07-23T08:20:25;99702.50;;;35.30;32.93
49627;BME280;35527;54.616;39.786;2022-07-23T08:23:28;99695.22;;;36.16;31.32
49627;BME280;35527;54.616;39.786;2022-07-23T08:26:36;99718.16;;;36.07;31.07
49627;BME280;35527;54.616;39.786;2022-07-23T08:29:42;99704.25;;;33.86;34.69
49627;BME280;35527;54.616;39.786;2022-07-23T08:32:50;99706.44;;;34.66;33.48
49627;BME280;35527;54.616;39.786;2022-07-23T08:35:53;99681.53;;;34.45;33.74
49627;BME280;35527;54.616;39.786;2022-07-23T08:39:00;99690.94;;;34.86;32.73
49627;BME280;35527;54.616;39.786;2022-07-23T08:42:28;99703.28;;;35.56;32.17
49627;BME280;35527;54.616;39.786;2022-07-23T08:45:36;99690.66;;;35.86;31.58
49627;BME280;35527;54.616;39.786;2022-07-23T08:48:41;99675.63;;;34.87;32.73
49627;BME280;35527;54.616;39.786;2022-07-23T08:51:46;99669.31;;;34.49;33.91
49627;BME280;35527;54.616;39.786;2022-07-23T08:54:51;99661.06;;;34.19;34.80
49627;BME280;35527;54.616;39.786;2022-07-23T08:57:55;99681.19;;;34.03;34.97
49627;BME280;35527;54.616;39.786;2022-07-23T09:00:58;99688.09;;;35.25;32.67
49627;BME280;35527;54.616;39.786;2022-07-23T09:04:03;99681.22;;;36.49;31.35
49627;BME280;35527;54.616;39.786;2022-07-23T09:07:08;99674.25;;;36.18;31.43
49627;BME280;35527;54.616;39.786;2022-07-23T09:10:15;99668.28;;;35.86;31.93
49627;BME280;35527;54.616;39.786;2022-07-23T09:16:42;99637.91;;;33.41;35.41
49627;BME280;35527;54.616;39.786;2022-07-23T09:19:48;99646.72;;;33.62;35.66
49627;BME280;35527;54.616;39.786;2022-07-23T09:23:16;99643.06;;;32.58;36.92
49627;BME280;35527;54.616;39.786;2022-07-23T09:29:27;99692.16;;;29.94;48.26
49627;BME280;35527;54.616;39.786;2022-07-23T09:32:33;99720.38;;;27.12;72.14
49627;BME280;35527;54.616;39.786;2022-07-23T09:35:54;99731.34;;;24.98;82.99
49627;BME280;35527;54.616;39.786;2022-07-23T09:39:00;99724.81;;;23.48;92.38
49627;BME280;35527;54.616;39.786;2022-07-23T09:42:14;99718.66;;;22.22;100.00
49627;BME280;35527;54.616;39.786;2022-07-23T09:45:18;99704.00;;;21.49;100.00
49627;BME280;35527;54.616;39.786;2022-07-23T09:48:21;99658.25;;;21.40;100.00
49627;BME280;35527;54.616;39.786;2022-07-23T09:51:27;99651.72;;;21.75;100.00
49627;BME280;35527;54.616;39.786;2022-07-23T09:54:38;99645.50;;;22.05;100.00
49627;BME280;35527;54.616;39.786;2022-07-23T09:58:06;99636.53;;;22.27;100.00
49627;BME280;35527;54.616;39.786;2022-07-23T10:01:14;99649.25;;;22.70;96.94
49627;BME280;35527;54.616;39.786;2022-07-23T10:04:18;99639.78;;;22.97;91.34
49627;BME280;35527;54.616;39.786;2022-07-23T10:07:42;99636.81;;;23.37;88.46
49627;BME280;35527;54.616;39.786;2022-07-23T10:11:26;99651.78;;;23.84;89.85
49627;BME280;35527;54.616;39.786;2022-07-23T10:14:57;99673.25;;;24.17;92.17
49627;BME280;35527;54.616;39.786;2022-07-23T10:18:02;99640.91;;;24.23;96.12
49627;BME280;35527;54.616;39.786;2022-07-23T10:21:06;99656.41;;;24.80;93.27
49627;BME280;35527;54.616;39.786;2022-07-23T10:34:55;99610.56;;;26.06;84.00
49627;BME280;35527;54.616;39.786;2022-07-23T10:38:29;99647.97;;;27.18;79.60
49627;BME280;35527;54.616;39.786;2022-07-23T10:41:37;99653.03;;;27.83;81.36
49627;BME280;35527;54.616;39.786;2022-07-23T10:44:43;99643.69;;;27.56;79.44
49627;BME280;35527;54.616;39.786;2022-07-23T10:47:46;99627.31;;;27.76;79.01
49627;BME280;35527;54.616;39.786;2022-07-23T10:51:09;99625.59;;;27.52;82.56
49627;BME280;35527;54.616;39.786;2022-07-23T10:54:22;99600.09;;;26.79;85.48
49627;BME280;35527;54.616;39.786;2022-07-23T10:57:26;99620.22;;;26.57;78.78
49627;BME280;35527;54.616;39.786;2022-07-23T11:00:31;99610.91;;;26.20;80.41
49627;BME280;35527;54.616;39.786;2022-07-23T11:03:34;99631.50;;;26.50;80.58
49627;BME280;35527;54.616;39.786;2022-07-23T11:09:53;99618.59;;;27.90;77.74
49627;BME280;35527;54.616;39.786;2022-07-23T11:16:26;99626.56;;;28.74;73.84
49627;BME280;35527;54.616;39.786;2022-07-23T11:19:30;99625.38;;;29.21;70.40
49627;BME280;35527;54.616;39.786;2022-07-23T11:22:38;99610.88;;;28.79;70.99
49627;BME280;35527;54.616;39.786;2022-07-23T11:25:42;99623.59;;;28.54;71.89
49627;BME280;35527;54.616;39.786;2022-07-23T11:28:46;99614.84;;;28.45;74.62
49627;BME280;35527;54.616;39.786;2022-07-23T11:31:59;99594.28;;;28.16;75.26
49627;BME280;35527;54.616;39.786;2022-07-23T11:35:18;99603.25;;;27.92;74.83
49627;BME280;35527;54.616;39.786;2022-07-23T11:38:23;99614.50;;;28.02;76.82
49627;BME280;35527;54.616;39.786;2022-07-23T11:41:25;99606.13;;;28.14;74.88
49627;BME280;35527;54.616;39.786;2022-07-23T11:44:30;99595.56;;;28.43;75.82
49627;BME280;35527;54.616;39.786;2022-07-23T11:47:35;99589.41;;;28.43;75.02
49627;BME280;35527;54.616;39.786;2022-07-23T11:50:39;99599.06;;;28.59;73.28
49627;BME280;35527;54.616;39.786;2022-07-23T11:53:45;99580.47;;;28.73;72.43
49627;BME280;35527;54.616;39.786;2022-07-23T11:56:59;99590.81;;;28.98;71.37
49627;BME280;35527;54.616;39.786;2022-07-23T12:00:15;99579.47;;;29.40;70.68
49627;BME280;35527;54.616;39.786;2022-07-23T12:03:21;99583.75;;;29.71;66.75
49627;BME280;35527;54.616;39.786;2022-07-23T12:06:24;99593.22;;;29.95;64.36
49627;BME280;35527;54.616;39.786;2022-07-23T12:09:31;99600.13;;;29.68;67.71
49627;BME280;35527;54.616;39.786;2022-07-23T12:13:03;99592.00;;;28.95;70.77
49627;BME280;35527;54.616;39.786;2022-07-23T12:16:06;99589.41;;;28.43;73.61
49627;BME280;35527;54.616;39.786;2022-07-23T12:19:10;99641.41;;;28.07;77.96
49627;BME280;35527;54.616;39.786;2022-07-23T12:22:14;99619.69;;;26.78;77.48
49627;BME280;35527;54.616;39.786;2022-07-23T12:25:19;99626.44;;;25.82;90.40
49627;BME280;35527;54.616;39.786;2022-07-23T12:28:31;99631.22;;;24.14;100.00
49627;BME280;35527;54.616;39.786;2022-07-23T12:31:41;99652.88;;;23.54;100.00
49627;BME280;35527;54.616;39.786;2022-07-23T12:34:48;99644.38;;;23.32;100.00
49627;BME280;35527;54.616;39.786;2022-07-23T12:37:51;99609.78;;;23.26;100.00
49627;BME280;35527;54.616;39.786;2022-07-23T12:40:58;99620.28;;;23.08;100.00
49627;BME280;35527;54.616;39.786;2022-07-23T12:44:14;99625.97;;;22.46;100.00
49627;BME280;35527;54.616;39.786;2022-07-23T12:47:18;99619.47;;;22.41;100.00
49627;BME280;35527;54.616;39.786;2022-07-23T12:54:05;99584.63;;;22.27;100.00
49627;BME280;35527;54.616;39.786;2022-07-23T12:57:10;99606.69;;;22.36;100.00
49627;BME280;35527;54.616;39.786;2022-07-23T13:00:14;99602.75;;;22.60;100.00
49627;BME280;35527;54.616;39.786;2022-07-23T13:03:22;99617.94;;;23.05;100.00
49627;BME280;35527;54.616;39.786;2022-07-23T13:06:26;99606.25;;;23.35;100.00
49627;BME280;35527;54.616;39.786;2022-07-23T13:09:31;99582.88;;;23.40;100.00
49627;BME280;35527;54.616;39.786;2022-07-23T13:12:38;99591.13;;;23.82;100.00
49627;BME280;35527;54.616;39.786;2022-07-23T13:15:42;99586.78;;;24.17;100.00
49627;BME280;35527;54.616;39.786;2022-07-23T13:18:45;99601.66;;;24.54;100.00
49627;BME280;35527;54.616;39.786;2022-07-23T13:21:48;99602.97;;;24.76;100.00
49627;BME280;35527;54.616;39.786;2022-07-23T13:24:52;99584.03;;;24.97;100.00
49627;BME280;35527;54.616;39.786;2022-07-23T13:27:56;99581.38;;;25.23;100.00
49627;BME280;35527;54.616;39.786;2022-07-23T13:30:59;99591.91;;;25.57;100.00
49627;BME280;35527;54.616;39.786;2022-07-23T13:34:03;99564.28;;;25.76;100.00
49627;BME280;35527;54.616;39.786;2022-07-23T13:37:10;99584.88;;;26.15;100.00
49627;BME280;35527;54.616;39.786;2022-07-23T13:40:17;99596.31;;;26.24;96.13
49627;BME280;35527;54.616;39.786;2022-07-23T13:43:23;99584.69;;;26.58;92.78
49627;BME280;35527;54.616;39.786;2022-07-23T13:46:27;99585.81;;;26.88;90.68
49627;BME280;35527;54.616;39.786;2022-07-23T13:49:30;99546.47;;;26.83;90.61
49627;BME280;35527;54.616;39.786;2022-07-23T13:52:36;99573.66;;;26.93;88.52
49627;BME280;35527;54.616;39.786;2022-07-23T13:55:41;99593.47;;;26.66;90.24
49627;BME280;35527;54.616;39.786;2022-07-23T13:58:46;99579.91;;;26.53;93.37
49627;BME280;35527;54.616;39.786;2022-07-23T14:01:52;99587.50;;;26.48;94.86
49627;BME280;35527;54.616;39.786;2022-07-23T14:05:14;99568.13;;;26.39;92.34
49627;BME280;35527;54.616;39.786;2022-07-23T14:08:17;99563.16;;;26.36;93.54
49627;BME280;35527;54.616;39.786;2022-07-23T14:11:20;99579.38;;;26.58;93.01
49627;BME280;35527;54.616;39.786;2022-07-23T14:14:25;99568.28;;;26.46;90.29
49627;BME280;35527;54.616;39.786;2022-07-23T14:17:32;99570.44;;;26.42;90.50
49627;BME280;35527;54.616;39.786;2022-07-23T14:20:35;99558.19;;;26.33;90.75
49627;BME280;35527;54.616;39.786;2022-07-23T14:23:42;99551.72;;;26.36;90.15
49627;BME280;35527;54.616;39.786;2022-07-23T14:26:46;99565.28;;;26.49;88.33
49627;BME280;35527;54.616;39.786;2022-07-23T14:29:51;99562.63;;;26.57;86.46
49627;BME280;35527;54.616;39.786;2022-07-23T14:32:54;99549.88;;;26.44;85.02
49627;BME280;35527;54.616;39.786;2022-07-23T14:35:57;99565.78;;;26.52;83.45
49627;BME280;35527;54.616;39.786;2022-07-23T14:39:02;99572.44;;;26.32;82.47
49627;BME280;35527;54.616;39.786;2022-07-23T14:42:08;99567.78;;;26.18;79.75
49627;BME280;35527;54.616;39.786;2022-07-23T14:45:11;99554.22;;;25.96;77.34
49627;BME280;35527;54.616;39.786;2022-07-23T14:48:14;99558.19;;;25.84;80.97
49627;BME280;35527;54.616;39.786;2022-07-23T14:51:18;99565.59;;;25.72;80.93
49627;BME280;35527;54.616;39.786;2022-07-23T14:54:28;99570.72;;;25.74;76.64
49627;BME280;35527;54.616;39.786;2022-07-23T14:57:31;99573.69;;;25.62;75.63
49627;BME280;35527;54.616;39.786;2022-07-23T15:00:34;99577.03;;;25.65;78.28
49627;BME280;35527;54.616;39.786;2022-07-23T15:03:38;99571.00;;;25.46;78.09
49627;BME280;35527;54.616;39.786;2022-07-23T15:06:45;99575.47;;;25.46;79.75
49627;BME280;35527;54.616;39.786;2022-07-23T15:09:47;99574.47;;;25.38;80.76
49627;BME280;35527;54.616;39.786;2022-07-23T15:12:52;99557.84;;;25.20;80.83
49627;BME280;35527;54.616;39.786;2022-07-23T15:15:57;99573.94;;;25.35;81.01
49627;BME280;35527;54.616;39.786;2022-07-23T15:19:04;99574.28;;;25.32;80.32
49627;BME280;35527;54.616;39.786;2022-07-23T15:22:08;99550.91;;;25.19;80.51
49627;BME280;35527;54.616;39.786;2022-07-23T15:25:38;99566.94;;;25.17;81.28
49627;BME280;35527;54.616;39.786;2022-07-23T15:28:42;99564.31;;;24.91;82.02
49627;BME280;35527;54.616;39.786;2022-07-23T15:31:45;99573.03;;;24.76;83.01
49627;BME280;35527;54.616;39.786;2022-07-23T15:34:52;99578.13;;;24.77;82.38
49627;BME280;35527;54.616;39.786;2022-07-23T15:37:55;99576.00;;;24.81;81.64
49627;BME280;35527;54.616;39.786;2022-07-23T15:41:02;99568.00;;;24.64;82.74
49627;BME280;35527;54.616;39.786;2022-07-23T15:44:06;99572.03;;;24.50;84.78
49627;BME280;35527;54.616;39.786;2022-07-23T15:47:12;99578.72;;;24.63;85.02
49627;BME280;35527;54.616;39.786;2022-07-23T15:50:15;99581.38;;;24.63;85.89
49627;BME280;35527;54.616;39.786;2022-07-23T15:53:18;99573.75;;;24.60;86.80
49627;BME280;35527;54.616;39.786;2022-07-23T15:56:25;99575.19;;;24.54;89.26
49627;BME280;35527;54.616;39.786;2022-07-23T15:59:29;99563.50;;;24.39;90.79
49627;BME280;35527;54.616;39.786;2022-07-23T16:02:32;99534.97;;;24.24;92.62
49627;BME280;35527;54.616;39.786;2022-07-23T16:05:34;99556.19;;;24.33;94.63
49627;BME280;35527;54.616;39.786;2022-07-23T16:08:37;99556.63;;;24.28;94.95
49627;BME280;35527;54.616;39.786;2022-07-23T16:11:45;99553.78;;;24.21;96.37
49627;BME280;35527;54.616;39.786;2022-07-23T16:14:48;99546.72;;;24.04;98.63
49627;BME280;35527;54.616;39.786;2022-07-23T16:17:50;99537.94;;;23.86;100.00
49627;BME280;35527;54.616;39.786;2022-07-23T16:20:53;99541.59;;;23.85;100.00
49627;BME280;35527;54.616;39.786;2022-07-23T16:23:58;99536.53;;;23.73;100.00
49627;BME280;35527;54.616;39.786;2022-07-23T16:27:05;99543.03;;;23.69;100.00
49627;BME280;35527;54.616;39.786;2022-07-23T16:30:13;99536.28;;;23.67;100.00
49627;BME280;35527;54.616;39.786;2022-07-23T16:33:17;99547.69;;;23.67;100.00
49627;BME280;35527;54.616;39.786;2022-07-23T16:36:20;99543.81;;;23.61;100.00